Dunareni 2 — YP2696 — position and weather

sailwx.info

Track history (hours):
 
Tides and Currents Weather Stations Pressure Air Temp Water Temp Dewpoint Dewpoint Depression Visibility Wind Speed Wind Dir Waves Ship Positions

Dunareni 2

Last reported at 2018-Jun-22 19:35 UTC. Time now 2018-Jun-22 23:01 UTC.
Position N 44°15' E 027°54'.

Length 16 m.

Type: Tug. MMSI: 264162696.

Date/timePositionNaut miles runAvg speedWind from/ knotsBaromVisibWave heightAir tempDewpointWater temp
2018-Jun-22 19:35N 44°15' E 027°54'0 0.0
2018-Jun-22 19:21N 44°15' E 027°54'0 0.0
2018-Jun-22 17:31N 44°15' E 027°54'0 0.0
2018-Jun-22 17:30N 44°15' E 027°54'0 0.0
2018-Jun-22 16:59N 44°15' E 027°54'0 0.0
2018-Jun-22 16:29N 44°15' E 027°54'0 0.0
2018-Jun-22 15:59N 44°15' E 027°54'0 0.1
2018-Jun-22 15:30N 44°15' E 027°54'  
2018-Jun-20 06:30N 44°18' E 028°03'1 2.2
2018-Jun-20 06:00N 44°17' E 028°04'2 2.8
2018-Jun-20 05:16N 44°16' E 028°06'1 3.8
2018-Jun-20 05:01N 44°16' E 028°08'2 3.8
2018-Jun-20 04:30N 44°16' E 028°10'2 4.0
2018-Jun-20 04:00N 44°15' E 028°13'2 4.1
2018-Jun-20 03:30N 44°15' E 028°16'1 2.6
2018-Jun-20 03:00N 44°15' E 028°18'0 0.0
2018-Jun-20 02:30N 44°15' E 028°18'0 0.0
2018-Jun-20 02:00N 44°15' E 028°18'0 0.0
2018-Jun-20 01:31N 44°15' E 028°18'0 0.0
2018-Jun-20 01:00N 44°15' E 028°18'0 0.0
2018-Jun-20 00:30N 44°15' E 028°18'0 0.0
2018-Jun-20 00:00N 44°15' E 028°18'0 0.0
2018-Jun-19 23:30N 44°15' E 028°18'0 0.0
2018-Jun-19 23:00N 44°15' E 028°18'0 0.0
2018-Jun-19 22:30N 44°15' E 028°18'0 0.0
2018-Jun-19 22:00N 44°15' E 028°18'0 0.0
2018-Jun-19 21:30N 44°15' E 028°18'0 0.0
2018-Jun-19 21:01N 44°15' E 028°18'0 0.0
2018-Jun-19 20:30N 44°15' E 028°18'0 0.0
2018-Jun-19 20:00N 44°15' E 028°18'0 0.0
2018-Jun-19 19:31N 44°15' E 028°18'0 0.0
2018-Jun-19 19:00N 44°15' E 028°18'0 0.0
2018-Jun-19 18:30N 44°15' E 028°18'0 0.0
2018-Jun-19 18:00N 44°15' E 028°18'0 0.0
2018-Jun-19 17:30N 44°15' E 028°18'0 0.1
2018-Jun-19 17:00N 44°15' E 028°18'1 1.5
2018-Jun-19 16:29N 44°15' E 028°19'2 4.0
2018-Jun-19 15:59N 44°14' E 028°21'2 4.2
2018-Jun-19 15:31N 44°13' E 028°23'2 4.1
2018-Jun-19 15:00N 44°14' E 028°26'5 3.9
2018-Jun-19 13:45N 44°16' E 028°32'0 1.5
2018-Jun-19 13:30N 44°16' E 028°32'0 0.0
2018-Jun-19 13:00N 44°16' E 028°32'0 0.0
2018-Jun-19 12:30N 44°16' E 028°32'0 0.3
2018-Jun-19 12:00N 44°16' E 028°33'0 0.2
2018-Jun-19 11:31N 44°16' E 028°33'1 1.5
2018-Jun-19 11:00N 44°16' E 028°34'0 0.9
2018-Jun-19 10:30N 44°16' E 028°33'0 0.1
2018-Jun-19 10:00N 44°16' E 028°33'0 0.0
2018-Jun-19 09:30N 44°16' E 028°33'0 0.0
2018-Jun-19 09:00N 44°16' E 028°33'0 0.0
2018-Jun-19 08:30N 44°16' E 028°33'0 0.0
2018-Jun-19 08:00N 44°16' E 028°33'0 0.0
2018-Jun-19 07:30N 44°16' E 028°33'0 0.0
2018-Jun-19 07:00N 44°16' E 028°33'0 0.0
2018-Jun-19 06:30N 44°16' E 028°33'0 0.0
2018-Jun-19 06:01N 44°16' E 028°33'0 0.0
2018-Jun-19 05:29N 44°16' E 028°33'0 0.0
2018-Jun-19 05:00N 44°16' E 028°33'0 0.0
2018-Jun-19 04:30N 44°16' E 028°33'0 0.0
2018-Jun-19 04:00N 44°16' E 028°33'0 0.0
2018-Jun-19 03:30N 44°16' E 028°33'0 0.0
2018-Jun-19 03:01N 44°16' E 028°33'0 0.0
2018-Jun-19 02:30N 44°16' E 028°33'0 0.0
2018-Jun-19 02:01N 44°16' E 028°33'0 0.0
2018-Jun-19 01:30N 44°16' E 028°33'0 0.0
2018-Jun-19 01:00N 44°16' E 028°33'0 0.0
2018-Jun-19 00:30N 44°16' E 028°33'0 0.0
2018-Jun-19 00:00N 44°16' E 028°33'0 0.0
2018-Jun-18 23:30N 44°16' E 028°33'0 0.0
2018-Jun-18 23:00N 44°16' E 028°33'0 0.0
2018-Jun-18 22:30N 44°16' E 028°33'0 0.0
2018-Jun-18 22:00N 44°16' E 028°33'0 0.0
2018-Jun-18 21:30N 44°16' E 028°33'0 0.0
2018-Jun-18 21:01N 44°16' E 028°33'0 0.0
2018-Jun-18 20:30N 44°16' E 028°33'0 0.0
2018-Jun-18 20:00N 44°16' E 028°33'0 0.0
2018-Jun-18 19:31N 44°16' E 028°33'0 0.0
2018-Jun-18 19:00N 44°16' E 028°33'0 0.0
2018-Jun-18 18:30N 44°16' E 028°33'0 0.0
2018-Jun-18 18:00N 44°16' E 028°33'0 0.0
2018-Jun-18 17:30N 44°16' E 028°33'0 0.0
2018-Jun-18 17:00N 44°16' E 028°33'0 0.0
2018-Jun-18 16:31N 44°16' E 028°33'0 0.0
2018-Jun-18 16:00N 44°16' E 028°33'0 0.0
2018-Jun-18 15:30N 44°16' E 028°33'0 0.0
2018-Jun-18 15:00N 44°16' E 028°33'0 0.0
2018-Jun-18 14:30N 44°16' E 028°33'0 0.0
2018-Jun-18 14:00N 44°16' E 028°33'0 0.0
2018-Jun-18 13:30N 44°16' E 028°33'0 0.0
2018-Jun-18 13:00N 44°16' E 028°33'0 0.0
2018-Jun-18 12:30N 44°16' E 028°33'0 0.0
2018-Jun-18 11:59N 44°16' E 028°33'0 0.0
2018-Jun-18 11:25N 44°16' E 028°33'0 0.6
2018-Jun-18 10:55N 44°16' E 028°33'0 0.5
2018-Jun-18 10:28N 44°16' E 028°32'0 0.5
2018-Jun-18 09:54N 44°16' E 028°33'0 0.4
2018-Jun-18 09:28N 44°16' E 028°33'0 0.2
2018-Jun-18 09:00N 44°16' E 028°33'0 0.2
2018-Jun-18 08:30N 44°16' E 028°33'0 0.1
2018-Jun-18 08:00N 44°16' E 028°33'0 0.4
2018-Jun-18 07:30N 44°16' E 028°33'0 0.5
2018-Jun-18 07:00N 44°16' E 028°32'0 0.6
2018-Jun-18 06:30N 44°16' E 028°33'0 0.5
2018-Jun-18 06:00N 44°16' E 028°33'0 0.2
2018-Jun-18 05:30N 44°16' E 028°33'0 0.2
2018-Jun-18 05:00N 44°16' E 028°33'1 1.1
2018-Jun-18 04:30N 44°16' E 028°33'0 0.3
2018-Jun-18 04:00N 44°16' E 028°32'0 0.0
2018-Jun-18 03:31N 44°16' E 028°32'0 0.0
2018-Jun-18 03:00N 44°16' E 028°32'0 0.0
2018-Jun-18 02:30N 44°16' E 028°32'0 0.0
2018-Jun-18 02:00N 44°16' E 028°32'0 0.0
2018-Jun-18 01:31N 44°16' E 028°32'0 0.0
2018-Jun-18 01:00N 44°16' E 028°32'0 0.0
2018-Jun-18 00:29N 44°16' E 028°32'0 0.0
2018-Jun-18 00:00N 44°16' E 028°32'0 0.0
2018-Jun-17 23:30N 44°16' E 028°32'0 0.0
2018-Jun-17 23:00N 44°16' E 028°32'0 0.0
2018-Jun-17 22:30N 44°16' E 028°32'0 0.0
2018-Jun-17 22:01N 44°16' E 028°32'0 0.0
2018-Jun-17 21:30N 44°16' E 028°32'0 0.0
2018-Jun-17 21:01N 44°16' E 028°32'0 0.0
2018-Jun-17 20:30N 44°16' E 028°32'0 0.0
2018-Jun-17 20:00N 44°16' E 028°32'0 0.0
2018-Jun-17 19:31N 44°16' E 028°32'0 0.0
2018-Jun-17 19:00N 44°16' E 028°32'0 0.0
2018-Jun-17 18:31N 44°16' E 028°32'0 0.0
2018-Jun-17 18:00N 44°16' E 028°32'0 0.0
2018-Jun-17 17:31N 44°16' E 028°32'0 0.0
2018-Jun-17 17:00N 44°16' E 028°32'0 0.0
2018-Jun-17 16:30N 44°16' E 028°32'0 0.0
2018-Jun-17 16:00N 44°16' E 028°32'0 0.0
2018-Jun-17 15:30N 44°16' E 028°32'0 0.0
2018-Jun-17 15:00N 44°16' E 028°32'0 0.0
2018-Jun-17 14:31N 44°16' E 028°32'0 0.0
2018-Jun-17 14:00N 44°16' E 028°32'0 0.0
2018-Jun-17 13:30N 44°16' E 028°32'0 0.0
2018-Jun-17 13:00N 44°16' E 028°32'5 2.1
2018-Jun-17 10:50N 44°14' E 028°27'2 2.6
2018-Jun-17 10:03N 44°13' E 028°24'0 2.6
2018-Jun-17 10:00N 44°13' E 028°24'1 2.7
2018-Jun-17 09:30N 44°14' E 028°22'2 3.5
2018-Jun-17 09:00N 44°15' E 028°21'2 3.4
2018-Jun-17 08:28N 44°15' E 028°18'2 3.5
2018-Jun-17 08:01N 44°15' E 028°16'2 3.4
2018-Jun-17 07:30N 44°15' E 028°14'2 3.3
2018-Jun-17 07:01N 44°16' E 028°11'2 3.2
2018-Jun-17 06:30N 44°16' E 028°09'2 3.2
2018-Jun-17 06:01N 44°16' E 028°07'2 3.4
2018-Jun-17 05:28N 44°17' E 028°05'  
Track history (hours):
 
Tides and Currents Weather Stations Pressure Air Temp Water Temp Dewpoint Dewpoint Depression Visibility Wind Speed Wind Dir Waves Ship Positions

Dunareni 2

Last reported at 2018-Jun-22 19:35 UTC. Time now 2018-Jun-22 23:01 UTC.
Position N 44°15' E 027°54'.

Length 16 m.

Type: Tug. MMSI: 264162696.

Date/timePositionNaut miles runAvg speedWind from/ knotsBaromVisibWave heightAir tempDewpointWater temp
2018-Jun-22 19:35N 44°15' E 027°54'0 0.0
2018-Jun-22 19:21N 44°15' E 027°54'0 0.0
2018-Jun-22 17:31N 44°15' E 027°54'0 0.0
2018-Jun-22 17:30N 44°15' E 027°54'0 0.0
2018-Jun-22 16:59N 44°15' E 027°54'0 0.0
2018-Jun-22 16:29N 44°15' E 027°54'0 0.0
2018-Jun-22 15:59N 44°15' E 027°54'0 0.1
2018-Jun-22 15:30N 44°15' E 027°54'  
2018-Jun-20 06:30N 44°18' E 028°03'1 2.2
2018-Jun-20 06:00N 44°17' E 028°04'2 2.8
2018-Jun-20 05:16N 44°16' E 028°06'1 3.8
2018-Jun-20 05:01N 44°16' E 028°08'2 3.8
2018-Jun-20 04:30N 44°16' E 028°10'2 4.0
2018-Jun-20 04:00N 44°15' E 028°13'2 4.1
2018-Jun-20 03:30N 44°15' E 028°16'1 2.6
2018-Jun-20 03:00N 44°15' E 028°18'0 0.0
2018-Jun-20 02:30N 44°15' E 028°18'0 0.0
2018-Jun-20 02:00N 44°15' E 028°18'0 0.0
2018-Jun-20 01:31N 44°15' E 028°18'0 0.0
2018-Jun-20 01:00N 44°15' E 028°18'0 0.0
2018-Jun-20 00:30N 44°15' E 028°18'0 0.0
2018-Jun-20 00:00N 44°15' E 028°18'0 0.0
2018-Jun-19 23:30N 44°15' E 028°18'0 0.0
2018-Jun-19 23:00N 44°15' E 028°18'0 0.0
2018-Jun-19 22:30N 44°15' E 028°18'0 0.0
2018-Jun-19 22:00N 44°15' E 028°18'0 0.0
2018-Jun-19 21:30N 44°15' E 028°18'0 0.0
2018-Jun-19 21:01N 44°15' E 028°18'0 0.0
2018-Jun-19 20:30N 44°15' E 028°18'0 0.0
2018-Jun-19 20:00N 44°15' E 028°18'0 0.0
2018-Jun-19 19:31N 44°15' E 028°18'0 0.0
2018-Jun-19 19:00N 44°15' E 028°18'0 0.0
2018-Jun-19 18:30N 44°15' E 028°18'0 0.0
2018-Jun-19 18:00N 44°15' E 028°18'0 0.0
2018-Jun-19 17:30N 44°15' E 028°18'0 0.1
2018-Jun-19 17:00N 44°15' E 028°18'1 1.5
2018-Jun-19 16:29N 44°15' E 028°19'2 4.0
2018-Jun-19 15:59N 44°14' E 028°21'2 4.2
2018-Jun-19 15:31N 44°13' E 028°23'2 4.1
2018-Jun-19 15:00N 44°14' E 028°26'5 3.9
2018-Jun-19 13:45N 44°16' E 028°32'0 1.5
2018-Jun-19 13:30N 44°16' E 028°32'0 0.0
2018-Jun-19 13:00N 44°16' E 028°32'0 0.0
2018-Jun-19 12:30N 44°16' E 028°32'0 0.3
2018-Jun-19 12:00N 44°16' E 028°33'0 0.2
2018-Jun-19 11:31N 44°16' E 028°33'1 1.5
2018-Jun-19 11:00N 44°16' E 028°34'0 0.9
2018-Jun-19 10:30N 44°16' E 028°33'0 0.1
2018-Jun-19 10:00N 44°16' E 028°33'0 0.0
2018-Jun-19 09:30N 44°16' E 028°33'0 0.0
2018-Jun-19 09:00N 44°16' E 028°33'0 0.0
2018-Jun-19 08:30N 44°16' E 028°33'0 0.0
2018-Jun-19 08:00N 44°16' E 028°33'0 0.0
2018-Jun-19 07:30N 44°16' E 028°33'0 0.0
2018-Jun-19 07:00N 44°16' E 028°33'0 0.0
2018-Jun-19 06:30N 44°16' E 028°33'0 0.0
2018-Jun-19 06:01N 44°16' E 028°33'0 0.0
2018-Jun-19 05:29N 44°16' E 028°33'0 0.0
2018-Jun-19 05:00N 44°16' E 028°33'0 0.0
2018-Jun-19 04:30N 44°16' E 028°33'0 0.0
2018-Jun-19 04:00N 44°16' E 028°33'0 0.0
2018-Jun-19 03:30N 44°16' E 028°33'0 0.0
2018-Jun-19 03:01N 44°16' E 028°33'0 0.0
2018-Jun-19 02:30N 44°16' E 028°33'0 0.0
2018-Jun-19 02:01N 44°16' E 028°33'0 0.0
2018-Jun-19 01:30N 44°16' E 028°33'0 0.0
2018-Jun-19 01:00N 44°16' E 028°33'0 0.0
2018-Jun-19 00:30N 44°16' E 028°33'0 0.0
2018-Jun-19 00:00N 44°16' E 028°33'0 0.0
2018-Jun-18 23:30N 44°16' E 028°33'0 0.0
2018-Jun-18 23:00N 44°16' E 028°33'0 0.0
2018-Jun-18 22:30N 44°16' E 028°33'0 0.0
2018-Jun-18 22:00N 44°16' E 028°33'0 0.0
2018-Jun-18 21:30N 44°16' E 028°33'0 0.0
2018-Jun-18 21:01N 44°16' E 028°33'0 0.0
2018-Jun-18 20:30N 44°16' E 028°33'0 0.0
2018-Jun-18 20:00N 44°16' E 028°33'0 0.0
2018-Jun-18 19:31N 44°16' E 028°33'0 0.0
2018-Jun-18 19:00N 44°16' E 028°33'0 0.0
2018-Jun-18 18:30N 44°16' E 028°33'0 0.0
2018-Jun-18 18:00N 44°16' E 028°33'0 0.0
2018-Jun-18 17:30N 44°16' E 028°33'0 0.0
2018-Jun-18 17:00N 44°16' E 028°33'0 0.0
2018-Jun-18 16:31N 44°16' E 028°33'0 0.0
2018-Jun-18 16:00N 44°16' E 028°33'0 0.0
2018-Jun-18 15:30N 44°16' E 028°33'0 0.0
2018-Jun-18 15:00N 44°16' E 028°33'0 0.0
2018-Jun-18 14:30N 44°16' E 028°33'0 0.0
2018-Jun-18 14:00N 44°16' E 028°33'0 0.0
2018-Jun-18 13:30N 44°16' E 028°33'0 0.0
2018-Jun-18 13:00N 44°16' E 028°33'0 0.0
2018-Jun-18 12:30N 44°16' E 028°33'0 0.0
2018-Jun-18 11:59N 44°16' E 028°33'0 0.0
2018-Jun-18 11:25N 44°16' E 028°33'0 0.6
2018-Jun-18 10:55N 44°16' E 028°33'0 0.5
2018-Jun-18 10:28N 44°16' E 028°32'0 0.5
2018-Jun-18 09:54N 44°16' E 028°33'0 0.4
2018-Jun-18 09:28N 44°16' E 028°33'0 0.2
2018-Jun-18 09:00N 44°16' E 028°33'0 0.2
2018-Jun-18 08:30N 44°16' E 028°33'0 0.1
2018-Jun-18 08:00N 44°16' E 028°33'0 0.4
2018-Jun-18 07:30N 44°16' E 028°33'0 0.5
2018-Jun-18 07:00N 44°16' E 028°32'0 0.6
2018-Jun-18 06:30N 44°16' E 028°33'0 0.5
2018-Jun-18 06:00N 44°16' E 028°33'0 0.2
2018-Jun-18 05:30N 44°16' E 028°33'0 0.2
2018-Jun-18 05:00N 44°16' E 028°33'1 1.1
2018-Jun-18 04:30N 44°16' E 028°33'0 0.3
2018-Jun-18 04:00N 44°16' E 028°32'0 0.0
2018-Jun-18 03:31N 44°16' E 028°32'0 0.0
2018-Jun-18 03:00N 44°16' E 028°32'0 0.0
2018-Jun-18 02:30N 44°16' E 028°32'0 0.0
2018-Jun-18 02:00N 44°16' E 028°32'0 0.0
2018-Jun-18 01:31N 44°16' E 028°32'0 0.0
2018-Jun-18 01:00N 44°16' E 028°32'0 0.0
2018-Jun-18 00:29N 44°16' E 028°32'0 0.0
2018-Jun-18 00:00N 44°16' E 028°32'0 0.0
2018-Jun-17 23:30N 44°16' E 028°32'0 0.0
2018-Jun-17 23:00N 44°16' E 028°32'0 0.0
2018-Jun-17 22:30N 44°16' E 028°32'0 0.0
2018-Jun-17 22:01N 44°16' E 028°32'0 0.0
2018-Jun-17 21:30N 44°16' E 028°32'0 0.0
2018-Jun-17 21:01N 44°16' E 028°32'0 0.0
2018-Jun-17 20:30N 44°16' E 028°32'0 0.0
2018-Jun-17 20:00N 44°16' E 028°32'0 0.0
2018-Jun-17 19:31N 44°16' E 028°32'0 0.0
2018-Jun-17 19:00N 44°16' E 028°32'0 0.0
2018-Jun-17 18:31N 44°16' E 028°32'0 0.0
2018-Jun-17 18:00N 44°16' E 028°32'0 0.0
2018-Jun-17 17:31N 44°16' E 028°32'0 0.0
2018-Jun-17 17:00N 44°16' E 028°32'0 0.0
2018-Jun-17 16:30N 44°16' E 028°32'0 0.0
2018-Jun-17 16:00N 44°16' E 028°32'0 0.0
2018-Jun-17 15:30N 44°16' E 028°32'0 0.0
2018-Jun-17 15:00N 44°16' E 028°32'0 0.0
2018-Jun-17 14:31N 44°16' E 028°32'0 0.0
2018-Jun-17 14:00N 44°16' E 028°32'0 0.0
2018-Jun-17 13:30N 44°16' E 028°32'0 0.0
2018-Jun-17 13:00N 44°16' E 028°32'5 2.1
2018-Jun-17 10:50N 44°14' E 028°27'2 2.6
2018-Jun-17 10:03N 44°13' E 028°24'0 2.6
2018-Jun-17 10:00N 44°13' E 028°24'1 2.7
2018-Jun-17 09:30N 44°14' E 028°22'2 3.5
2018-Jun-17 09:00N 44°15' E 028°21'2 3.4
2018-Jun-17 08:28N 44°15' E 028°18'2 3.5
2018-Jun-17 08:01N 44°15' E 028°16'2 3.4
2018-Jun-17 07:30N 44°15' E 028°14'2 3.3
2018-Jun-17 07:01N 44°16' E 028°11'2 3.2
2018-Jun-17 06:30N 44°16' E 028°09'2 3.2
2018-Jun-17 06:01N 44°16' E 028°07'2 3.4
2018-Jun-17 05:28N 44°17' E 028°05'  

Dump ship's entire track history